Time;durP1;ratioP1;P1;durP2;ratioP2;P2;SDS_P1;SDS_P2;PMS_P1;PMS_P2;Temp;Humidity;BMP_temperature;BMP_pressure;BME280_temperature;BME280_humidity;BME280_pressure;Samples;Min_cycle;Max_cycle;Signal;HPM_P1;HPM_P2
2022/08/14 00:00:42;;;;;;;46.38;24.20;;;16.80;99.90;;;;;;5094905;28;20161;-58
2022/08/14 00:03:17;;;;;;;44.70;24.30;;;16.80;99.90;;;;;;5094655;28;20050;-58
2022/08/14 00:05:43;;;;;;;43.58;24.67;;;16.70;99.90;;;;;;5093723;28;20084;-58
2022/08/14 00:08:09;;;;;;;44.28;23.52;;;16.60;99.90;;;;;;5094808;28;20043;-58
2022/08/14 00:10:35;;;;;;;56.53;25.10;;;16.70;99.90;;;;;;5093463;28;20032;-58
2022/08/14 00:13:01;;;;;;;49.60;25.52;;;16.60;99.90;;;;;;5094584;28;20534;-58
2022/08/14 00:15:33;;;;;;;49.28;25.83;;;16.50;99.90;;;;;;5094799;28;20056;-58
2022/08/14 00:18:00;;;;;;;51.22;25.65;;;16.60;99.90;;;;;;5094645;28;20024;-58
2022/08/14 00:20:30;;;;;;;46.80;24.05;;;16.60;99.90;;;;;;5094650;28;20119;-58
2022/08/14 00:22:57;;;;;;;49.00;25.67;;;16.60;99.90;;;;;;5094369;28;20097;-58
2022/08/14 00:25:24;;;;;;;45.35;22.55;;;16.60;99.90;;;;;;5094680;28;20031;-58
2022/08/14 00:27:50;;;;;;;43.47;23.02;;;16.50;99.90;;;;;;5094477;28;20020;-58
2022/08/14 00:30:16;;;;;;;46.95;23.83;;;16.50;99.90;;;;;;5094576;28;20496;-58
2022/08/14 00:32:42;;;;;;;49.67;24.58;;;16.50;99.90;;;;;;5094630;28;20051;-58
2022/08/14 00:35:09;;;;;;;40.38;21.98;;;16.40;99.90;;;;;;5094508;28;20405;-58
2022/08/14 00:37:38;;;;;;;48.15;24.25;;;16.60;99.90;;;;;;5093418;28;20048;-58
2022/08/14 00:40:05;;;;;;;56.45;26.30;;;16.60;99.90;;;;;;5098465;28;20073;-58
2022/08/14 00:42:31;;;;;;;48.22;25.80;;;16.60;99.90;;;;;;5098555;28;20035;-58
2022/08/14 00:44:57;;;;;;;48.92;26.58;;;16.50;99.90;;;;;;5098630;28;20031;-58
2022/08/14 00:47:23;;;;;;;59.50;28.02;;;16.40;99.90;;;;;;5098577;28;20024;-58
2022/08/14 00:49:55;;;;;;;62.08;27.77;;;16.40;99.90;;;;;;5098498;28;20359;-58
2022/08/14 00:52:21;;;;;;;76.75;30.75;;;16.40;99.90;;;;;;5098627;28;20036;-58
2022/08/14 00:54:53;;;;;;;60.25;28.85;;;16.50;99.90;;;;;;5098399;28;20035;-58
2022/08/14 00:57:28;;;;;;;71.10;30.08;;;16.50;99.90;;;;;;5098362;28;20036;-58
2022/08/14 00:59:56;;;;;;;62.90;29.60;;;16.50;99.90;;;;;;5098534;28;20081;-58
2022/08/14 01:02:23;;;;;;;61.08;26.98;;;16.50;99.90;;;;;;5098250;28;20027;-58
2022/08/14 01:04:58;;;;;;;69.15;27.90;;;16.50;99.90;;;;;;5098292;28;20437;-58
2022/08/14 01:07:28;;;;;;;69.78;28.92;;;16.50;99.90;;;;;;5098261;28;20028;-58
2022/08/14 01:10:03;;;;;;;53.90;26.48;;;16.40;99.90;;;;;;5096840;28;20020;-58
2022/08/14 01:12:31;;;;;;;63.25;29.25;;;16.40;99.90;;;;;;5098203;28;20030;-58
2022/08/14 01:14:59;;;;;;;60.30;29.73;;;16.30;99.90;;;;;;5098073;28;20089;-58
2022/08/14 01:21:02;;;;;;;60.13;28.90;;;16.30;99.90;;;;;;5098063;28;20107;-58
2022/08/14 01:22:58;;;;;;;54.22;25.02;;;16.30;99.90;;;;;;5097742;28;20044;-58
2022/08/14 01:25:24;;;;;;;61.40;28.33;;;16.30;99.90;;;;;;5097789;28;20027;-58
2022/08/14 01:27:54;;;;;;;56.05;25.15;;;16.40;99.90;;;;;;5097897;28;20461;-58
2022/08/14 01:30:24;;;;;;;59.15;25.75;;;16.40;99.90;;;;;;5097716;28;20027;-58
2022/08/14 01:32:50;;;;;;;55.47;26.27;;;16.40;99.90;;;;;;5097824;28;20032;-58
2022/08/14 01:35:17;;;;;;;65.43;28.50;;;16.40;99.90;;;;;;5097642;28;20055;-58
2022/08/14 01:37:45;;;;;;;61.35;29.00;;;16.30;99.90;;;;;;5097503;28;20482;-58
2022/08/14 01:40:11;;;;;;;61.88;28.95;;;16.30;99.90;;;;;;5097567;28;20028;-58
2022/08/14 01:42:37;;;;;;;68.20;29.10;;;16.30;99.90;;;;;;5097581;28;20024;-58
2022/08/14 01:45:11;;;;;;;59.90;28.40;;;16.40;99.90;;;;;;5097446;28;20373;-58
2022/08/14 01:47:37;;;;;;;62.25;27.35;;;16.40;99.90;;;;;;5097668;28;20101;-58
2022/08/14 01:50:06;;;;;;;61.03;27.40;;;16.50;99.90;;;;;;5096744;28;20036;-58
2022/08/14 01:52:35;;;;;;;57.70;27.48;;;16.50;99.90;;;;;;5097171;28;20115;-58
2022/08/14 01:55:12;;;;;;;61.33;26.38;;;16.50;99.90;;;;;;5097265;28;20032;-58
2022/08/14 01:57:43;;;;;;;63.58;27.55;;;16.50;99.90;;;;;;5097321;28;20068;-58
2022/08/14 02:00:17;;;;;;;51.70;25.13;;;16.50;99.90;;;;;;5097124;28;20029;-58
2022/08/14 02:02:44;;;;;;;58.20;26.20;;;16.40;99.90;;;;;;5097029;28;20036;-58
2022/08/14 02:05:13;;;;;;;52.70;23.63;;;16.50;99.90;;;;;;5097181;28;20241;-58
2022/08/14 02:07:42;;;;;;;46.78;23.45;;;16.50;99.90;;;;;;5097023;28;20031;-58
2022/08/14 02:10:10;;;;;;;45.38;21.88;;;16.50;99.90;;;;;;5095695;28;20441;-58
2022/08/14 02:12:36;;;;;;;44.60;22.15;;;16.40;99.90;;;;;;5097084;28;20092;-58
2022/08/14 02:15:06;;;;;;;50.92;23.88;;;16.50;99.90;;;;;;5096851;28;20497;-58
2022/08/14 02:17:33;;;;;;;50.10;25.30;;;16.50;99.90;;;;;;5096910;28;20381;-58
2022/08/14 02:19:59;;;;;;;55.30;24.15;;;16.40;99.90;;;;;;5096989;28;20382;-58
2022/08/14 02:22:26;;;;;;;49.97;23.70;;;16.30;99.90;;;;;;5096578;28;20040;-58
2022/08/14 02:24:52;;;;;;;52.85;24.33;;;16.30;99.90;;;;;;5095519;28;20056;-58
2022/08/14 02:27:19;;;;;;;50.67;23.75;;;16.30;99.90;;;;;;5096859;28;20112;-58
2022/08/14 02:29:46;;;;;;;56.67;24.60;;;16.30;99.90;;;;;;5096614;28;20030;-58
2022/08/14 02:32:15;;;;;;;48.85;23.73;;;16.30;99.90;;;;;;5095357;28;20039;-58
2022/08/14 02:34:41;;;;;;;47.65;22.63;;;16.30;99.90;;;;;;5096546;28;20107;-58
2022/08/14 02:37:10;;;;;;;51.00;23.10;;;16.20;99.90;;;;;;5096574;28;20028;-58
2022/08/14 02:39:45;;;;;;;50.30;23.05;;;16.30;99.90;;;;;;5095217;28;20032;-58
2022/08/14 02:42:16;;;;;;;54.03;23.27;;;16.30;99.90;;;;;;5096315;28;20114;-58
2022/08/14 02:44:43;;;;;;;52.22;23.60;;;16.20;99.90;;;;;;5096254;28;20575;-58
2022/08/14 02:47:09;;;;;;;50.53;21.95;;;16.30;99.90;;;;;;5096297;28;20027;-58
2022/08/14 02:49:36;;;;;;;48.28;23.55;;;16.30;99.90;;;;;;5096232;28;20051;-58
2022/08/14 02:52:06;;;;;;;57.13;25.35;;;16.30;99.90;;;;;;5096154;28;20027;-58
2022/08/14 02:54:33;;;;;;;47.83;22.07;;;16.30;99.90;;;;;;5096135;28;20039;-58
2022/08/14 02:57:00;;;;;;;49.95;22.77;;;16.40;99.90;;;;;;5095970;28;20020;-58
2022/08/14 02:59:29;;;;;;;47.58;21.08;;;16.50;99.90;;;;;;5096350;28;20024;-58
2022/08/14 03:01:56;;;;;;;42.85;20.50;;;16.40;99.90;;;;;;5093619;28;20028;-58
2022/08/14 03:04:22;;;;;;;43.28;20.58;;;16.40;99.90;;;;;;5096053;28;20081;-58
2022/08/14 03:06:49;;;;;;;48.88;22.85;;;16.40;99.90;;;;;;5095878;28;20070;-58
2022/08/14 03:09:15;;;;;;;51.60;23.00;;;16.40;99.90;;;;;;5095886;28;20020;-58
2022/08/14 03:11:43;;;;;;;60.53;29.67;;;16.30;99.90;;;;;;5094519;28;20035;-58
2022/08/14 03:14:10;;;;;;;59.72;26.75;;;16.30;99.90;;;;;;5095834;28;20385;-58
2022/08/14 03:16:39;;;;;;;58.28;27.60;;;16.20;99.90;;;;;;5095741;28;20036;-58
2022/08/14 03:19:06;;;;;;;61.03;26.95;;;16.10;99.90;;;;;;5095598;28;20020;-58
2022/08/14 03:21:34;;;;;;;64.32;28.73;;;16.20;99.90;;;;;;5095618;28;20074;-58
2022/08/14 03:26:28;;;;;;;68.72;31.15;;;16.00;99.90;;;;;;5095485;28;20111;-58
2022/08/14 03:28:54;;;;;;;78.38;33.80;;;15.90;99.90;;;;;;5095587;28;20432;-58
2022/08/14 03:31:22;;;;;;;72.43;33.35;;;16.00;99.90;;;;;;5095356;28;20055;-58
2022/08/14 03:33:50;;;;;;;71.50;32.22;;;16.00;99.90;;;;;;5095555;28;20024;-58
2022/08/14 03:36:19;;;;;;;73.60;33.05;;;16.00;99.90;;;;;;5095409;28;20028;-58
2022/08/14 03:38:48;;;;;;;83.25;34.38;;;16.00;99.90;;;;;;5093960;28;20028;-58
2022/08/14 03:41:16;;;;;;;107.18;40.40;;;16.00;99.90;;;;;;5095298;28;20093;-58
2022/08/14 03:43:49;;;;;;;98.57;38.10;;;16.00;99.90;;;;;;5095340;28;20036;-58
2022/08/14 03:46:16;;;;;;;80.07;34.22;;;16.00;99.90;;;;;;5095106;28;20031;-58
2022/08/14 03:48:44;;;;;;;105.45;38.45;;;16.10;99.90;;;;;;5095216;28;20070;-58
2022/08/14 03:51:12;;;;;;;124.95;43.67;;;16.10;99.90;;;;;;5095180;28;20029;-58
2022/08/14 03:53:40;;;;;;;128.50;43.28;;;16.10;99.90;;;;;;5093888;28;20107;-58
2022/08/14 03:56:11;;;;;;;136.75;43.22;;;16.10;99.90;;;;;;5095103;28;20062;-58
2022/08/14 03:58:44;;;;;;;137.13;43.40;;;16.20;99.90;;;;;;5095167;28;20039;-58
2022/08/14 04:01:21;;;;;;;164.25;49.58;;;16.10;99.90;;;;;;5095093;28;20024;-58
2022/08/14 04:03:48;;;;;;;158.13;48.15;;;16.00;99.90;;;;;;5094877;28;20497;-58
2022/08/14 04:06:15;;;;;;;184.70;49.53;;;16.10;99.90;;;;;;5094832;28;20549;-58
2022/08/14 04:08:42;;;;;;;178.90;52.60;;;16.00;99.90;;;;;;5094816;28;20079;-58
2022/08/14 04:11:09;;;;;;;182.95;50.92;;;16.10;99.90;;;;;;5093629;28;20123;-58
2022/08/14 04:13:38;;;;;;;189.07;52.92;;;16.10;99.90;;;;;;5094494;28;20483;-58
2022/08/14 04:16:06;;;;;;;179.20;50.60;;;16.10;99.90;;;;;;5094713;28;20080;-58
2022/08/14 04:18:38;;;;;;;174.25;51.05;;;16.10;99.90;;;;;;5094766;28;20036;-58
2022/08/14 04:21:05;;;;;;;171.43;49.00;;;16.20;99.90;;;;;;5094535;28;20106;-58
2022/08/14 04:23:32;;;;;;;182.30;52.72;;;16.10;99.90;;;;;;5094493;28;20051;-58
2022/08/14 04:26:07;;;;;;;174.05;50.60;;;16.20;99.90;;;;;;5094710;28;20095;-58
2022/08/14 04:28:35;;;;;;;168.75;51.42;;;16.10;99.90;;;;;;5094485;28;20031;-58
2022/08/14 04:31:02;;;;;;;186.02;55.08;;;16.10;99.90;;;;;;5094589;28;20032;-58
2022/08/14 04:33:28;;;;;;;174.75;51.08;;;16.10;99.90;;;;;;5093720;28;20028;-58
2022/08/14 04:35:55;;;;;;;174.32;51.40;;;16.10;99.90;;;;;;5094392;28;20024;-58
2022/08/14 04:43:51;;;;;;;174.25;52.05;;;16.10;99.90;;;;;;5094286;28;20040;-58
2022/08/14 04:46:19;;;;;;;186.05;54.75;;;16.30;99.90;;;;;;5094490;28;20103;-58
2022/08/14 04:48:45;;;;;;;192.50;55.88;;;16.40;99.90;;;;;;5094421;28;20028;-58
2022/08/14 04:51:19;;;;;;;189.52;57.40;;;16.30;99.90;;;;;;5094441;28;20028;-58
2022/08/14 04:53:48;;;;;;;190.65;55.90;;;16.40;99.90;;;;;;5094350;28;20032;-58
2022/08/14 04:56:22;;;;;;;185.13;55.40;;;16.40;99.90;;;;;;5094322;28;20085;-58
2022/08/14 04:58:49;;;;;;;190.63;56.03;;;16.50;99.90;;;;;;5094229;28;20059;-58
2022/08/14 05:01:16;;;;;;;196.27;57.17;;;16.40;99.90;;;;;;5094301;28;20039;-58
2022/08/14 05:03:42;;;;;;;195.70;57.38;;;16.60;99.90;;;;;;5094301;28;20024;-58
2022/08/14 05:06:10;;;;;;;184.18;56.75;;;16.70;99.90;;;;;;5094051;28;20028;-58
2022/08/14 05:08:37;;;;;;;183.27;56.03;;;16.70;99.90;;;;;;5094216;28;20124;-58
2022/08/14 05:11:06;;;;;;;205.70;60.13;;;16.80;99.90;;;;;;5092828;28;20035;-58
2022/08/14 05:13:33;;;;;;;185.18;55.88;;;16.70;99.90;;;;;;5094150;28;20039;-58
2022/08/14 05:16:00;;;;;;;189.27;56.33;;;16.80;99.90;;;;;;5094233;28;20031;-58
2022/08/14 05:18:34;;;;;;;196.95;56.15;;;16.90;99.90;;;;;;5094182;28;20028;-58
2022/08/14 05:21:06;;;;;;;203.23;59.00;;;17.00;99.90;;;;;;5094017;28;20035;-58
2022/08/14 05:23:34;;;;;;;178.00;54.20;;;17.00;99.90;;;;;;5073802;28;20202;-58
2022/08/14 05:26:12;;;;;;;189.82;59.03;;;17.10;99.90;;;;;;5075653;28;20025;-58
2022/08/14 05:28:43;;;;;;;194.48;58.45;;;17.20;99.90;;;;;;5077636;28;20059;-58
2022/08/14 05:31:11;;;;;;;193.30;59.65;;;17.00;99.90;;;;;;5077482;28;20025;-58
2022/08/14 05:33:37;;;;;;;197.35;56.42;;;17.00;99.90;;;;;;5077581;28;20035;-58
2022/08/14 05:36:06;;;;;;;195.40;57.25;;;16.80;99.90;;;;;;5077611;28;20533;-58
2022/08/14 05:38:39;;;;;;;191.25;57.08;;;16.90;99.90;;;;;;5077339;28;20029;-58
2022/08/14 05:41:11;;;;;;;205.23;58.92;;;16.80;99.90;;;;;;5077205;28;20098;-58
2022/08/14 05:43:39;;;;;;;203.73;61.78;;;16.90;99.90;;;;;;5077238;28;20032;-58
2022/08/14 05:46:05;;;;;;;200.15;59.03;;;17.00;99.90;;;;;;5077146;28;20033;-58
2022/08/14 05:48:31;;;;;;;194.20;58.65;;;17.10;99.90;;;;;;5077192;28;20017;-58
2022/08/14 05:50:57;;;;;;;186.88;57.38;;;17.20;99.90;;;;;;5077177;28;20163;-58
2022/08/14 05:53:26;;;;;;;192.38;56.67;;;17.40;99.90;;;;;;5077083;28;20099;-58
2022/08/14 05:55:52;;;;;;;181.85;55.30;;;17.40;99.90;;;;;;5077429;28;20462;-58
2022/08/14 05:58:19;;;;;;;149.02;45.80;;;17.60;99.90;;;;;;5076908;28;20024;-58
2022/08/14 06:00:45;;;;;;;133.50;43.17;;;17.60;99.90;;;;;;5076946;28;20028;-58
2022/08/14 06:03:15;;;;;;;116.07;38.05;;;17.60;99.90;;;;;;5076880;28;20090;-58
2022/08/14 06:05:45;;;;;;;115.60;38.90;;;17.70;99.90;;;;;;5077034;28;20025;-58
2022/08/14 06:08:15;;;;;;;117.70;37.88;;;17.70;99.90;;;;;;5076851;28;20032;-58
2022/08/14 06:10:42;;;;;;;106.67;34.73;;;17.80;99.90;;;;;;5075383;28;20028;-58
2022/08/14 06:13:07;;;;;;;109.88;33.08;;;17.90;99.90;;;;;;5076876;28;20296;-58
2022/08/14 06:15:33;;;;;;;99.85;33.63;;;18.00;99.90;;;;;;5076776;28;20433;-58
2022/08/14 06:18:00;;;;;;;95.80;31.75;;;17.90;99.90;;;;;;5076729;28;20385;-58
2022/08/14 06:20:27;;;;;;;98.80;33.55;;;18.00;99.90;;;;;;5076634;28;20557;-58
2022/08/14 06:22:53;;;;;;;94.15;30.75;;;18.00;99.90;;;;;;5091098;28;20036;-58
2022/08/14 06:25:18;;;;;;;94.50;32.13;;;18.10;99.90;;;;;;5096612;28;20047;-58
2022/08/14 06:27:48;;;;;;;86.88;29.88;;;18.10;99.90;;;;;;5096764;28;20084;-58
2022/08/14 06:30:20;;;;;;;91.35;31.65;;;18.20;99.90;;;;;;5096636;28;20054;-58
2022/08/14 06:32:46;;;;;;;91.38;30.17;;;18.20;99.90;;;;;;5096584;28;20076;-58
2022/08/14 06:35:19;;;;;;;84.25;29.60;;;18.30;99.90;;;;;;5096611;28;20031;-58
2022/08/14 06:37:54;;;;;;;78.32;29.58;;;18.50;99.90;;;;;;5096189;28;20462;-58
2022/08/14 06:40:27;;;;;;;88.22;29.80;;;18.40;99.90;;;;;;5096544;28;20067;-58
2022/08/14 06:42:53;;;;;;;77.50;29.08;;;18.60;99.90;;;;;;5096371;28;20051;-58
2022/08/14 06:45:19;;;;;;;74.20;26.77;;;18.60;99.90;;;;;;5096204;28;20024;-58
2022/08/14 06:47:46;;;;;;;68.82;27.13;;;18.60;99.90;;;;;;5096406;28;20063;-58
2022/08/14 06:50:16;;;;;;;69.50;25.77;;;18.70;99.90;;;;;;5096249;28;20020;-58
2022/08/14 06:52:43;;;;;;;66.32;26.30;;;18.70;99.90;;;;;;5096367;28;20028;-58
2022/08/14 06:55:11;;;;;;;67.30;26.80;;;18.60;99.90;;;;;;5096325;28;20078;-58
2022/08/14 06:57:44;;;;;;;68.07;27.00;;;18.50;99.90;;;;;;5096255;28;20028;-58
2022/08/14 07:00:18;;;;;;;71.63;27.27;;;18.60;99.90;;;;;;5096139;28;20085;-58
2022/08/14 07:05:45;;;;;;;65.03;26.38;;;18.60;99.90;;;;;;5095797;28;20028;-58
2022/08/14 07:08:26;;;;;;;63.53;24.65;;;18.60;99.90;;;;;;5095785;28;20024;-58
2022/08/14 07:10:54;;;;;;;67.55;26.95;;;18.60;99.90;;;;;;5094675;28;20036;-58
2022/08/14 07:13:21;;;;;;;62.55;26.75;;;18.50;99.90;;;;;;5095684;28;20032;-58
2022/08/14 07:15:49;;;;;;;74.57;28.58;;;18.70;99.90;;;;;;5095939;28;20044;-58
2022/08/14 07:18:21;;;;;;;74.45;28.63;;;18.80;99.90;;;;;;5095817;28;20032;-58
2022/08/14 07:20:47;;;;;;;78.43;27.05;;;18.80;99.90;;;;;;5095419;28;20063;-58
2022/08/14 07:23:14;;;;;;;58.00;25.23;;;19.00;99.90;;;;;;5095487;28;20400;-58
2022/08/14 07:25:42;;;;;;;55.95;25.05;;;19.20;99.90;;;;;;5095542;28;20423;-58
2022/08/14 07:28:14;;;;;;;47.80;22.17;;;19.60;99.90;;;;;;5095555;28;20020;-58
2022/08/14 07:30:41;;;;;;;53.38;24.30;;;19.60;99.90;;;;;;5095768;28;20020;-58
2022/08/14 07:33:08;;;;;;;58.15;24.95;;;19.70;99.90;;;;;;5095564;28;20043;-58
2022/08/14 07:35:35;;;;;;;61.17;25.35;;;19.60;99.90;;;;;;5095522;28;20484;-58
2022/08/14 07:38:03;;;;;;;46.92;22.88;;;19.70;99.90;;;;;;5094134;28;20469;-58
2022/08/14 07:40:29;;;;;;;48.75;20.65;;;20.30;99.90;;;;;;5095275;28;20051;-58
2022/08/14 07:42:55;;;;;;;50.22;22.15;;;20.60;99.90;;;;;;5095223;28;20054;-58
2022/08/14 07:45:21;;;;;;;42.90;20.00;;;20.80;99.90;;;;;;5095284;28;20492;-58
2022/08/14 07:47:47;;;;;;;60.00;24.77;;;21.00;99.90;;;;;;5094406;28;20024;-58
2022/08/14 07:50:15;;;;;;;57.00;25.90;;;21.00;99.90;;;;;;5095140;28;20024;-58
2022/08/14 07:52:46;;;;;;;53.97;23.83;;;20.90;99.90;;;;;;5095209;28;20081;-59
2022/08/14 07:55:14;;;;;;;58.30;26.02;;;20.90;99.90;;;;;;5094953;28;20048;-58
2022/08/14 07:57:42;;;;;;;59.75;27.05;;;20.90;99.90;;;;;;5095084;28;20054;-60
2022/08/14 08:00:15;;;;;;;61.03;27.25;;;21.00;99.90;;;;;;5095045;28;20109;-59
2022/08/14 08:02:44;;;;;;;58.38;25.73;;;21.20;99.90;;;;;;5094836;28;20028;-59
2022/08/14 08:05:11;;;;;;;54.28;23.85;;;21.30;99.90;;;;;;5094945;28;20032;-58
2022/08/14 08:07:39;;;;;;;58.92;24.77;;;21.30;99.90;;;;;;5094707;28;20027;-58
2022/08/14 08:10:30;;;;;;;52.78;23.17;;;21.50;99.90;;;;;;5093422;28;20031;-59
2022/08/14 08:12:57;;;;;;;;;;;21.20;99.90;;;;;;5095320;28;20024;-59
2022/08/14 08:15:28;;;;;;;59.20;27.17;;;21.40;99.90;;;;;;5094845;28;19904;-59
2022/08/14 08:17:55;;;;;;;54.55;26.95;;;21.60;99.90;;;;;;5094871;28;20031;-59
2022/08/14 08:20:26;;;;;;;54.42;26.02;;;21.80;99.90;;;;;;5095125;28;20028;-59
2022/08/14 08:22:55;;;;;;;62.95;27.05;;;21.60;99.90;;;;;;5094463;28;20112;-59
2022/08/14 08:25:22;;;;;;;41.97;21.73;;;21.50;99.90;;;;;;5094572;28;20024;-59
2022/08/14 08:28:08;;;;;;;45.67;22.38;;;21.60;99.90;;;;;;5094672;28;20031;-59
2022/08/14 08:30:36;;;;;;;49.58;23.55;;;21.70;99.90;;;;;;5094370;28;20503;-59
2022/08/14 08:33:05;;;;;;;50.65;24.65;;;21.70;99.90;;;;;;5094677;28;20056;-59
2022/08/14 08:35:34;;;;;;;49.95;22.85;;;21.80;99.90;;;;;;5094608;28;20040;-59
2022/08/14 08:38:13;;;;;;;32.45;17.92;;;21.70;99.90;;;;;;5094345;28;20032;-59
2022/08/14 08:40:41;;;;;;;32.53;17.30;;;21.70;99.90;;;;;;5094572;28;20036;-59
2022/08/14 08:43:20;;;;;;;31.35;17.20;;;22.00;99.90;;;;;;5094431;28;20032;-59
2022/08/14 08:45:59;;;;;;;25.95;15.48;;;22.00;99.90;;;;;;5094378;28;20024;-59
2022/08/14 08:48:28;;;;;;;31.55;17.10;;;21.60;99.90;;;;;;5094379;28;20020;-59
2022/08/14 08:51:00;;;;;;;36.60;20.27;;;21.90;99.90;;;;;;5094581;28;20020;-59
2022/08/14 08:53:33;;;;;;;49.10;25.95;;;22.20;99.90;;;;;;5094347;28;20028;-59
2022/08/14 08:56:00;;;;;;;70.68;34.20;;;22.50;99.90;;;;;;5094376;28;20477;-59
2022/08/14 08:58:26;;;;;;;117.05;51.33;;;22.80;99.90;;;;;;5094539;28;20074;-59
2022/08/14 09:00:54;;;;;;;122.82;52.50;;;23.00;99.90;;;;;;5097740;28;20036;-59
2022/08/14 09:03:24;;;;;;;114.28;50.97;;;23.60;99.90;;;;;;5098368;28;20024;-59
2022/08/14 09:06:00;;;;;;;109.47;50.20;;;24.30;99.20;;;;;;5098192;28;20024;-59
2022/08/14 09:08:28;;;;;;;118.07;55.50;;;24.70;95.30;;;;;;5098029;28;20035;-59
2022/08/14 09:10:56;;;;;;;92.35;43.20;;;25.10;95.70;;;;;;5097015;28;20028;-59
2022/08/14 09:13:25;;;;;;;88.45;40.90;;;25.30;94.10;;;;;;5098061;28;20028;-59
2022/08/14 09:15:54;;;;;;;76.88;37.40;;;25.10;91.40;;;;;;5098255;28;20035;-59
2022/08/14 09:18:21;;;;;;;61.10;32.30;;;25.50;89.90;;;;;;5097819;28;20035;-59
2022/08/14 09:20:51;;;;;;;76.47;44.28;;;25.50;90.20;;;;;;5097833;28;20399;-59
2022/08/14 09:23:18;;;;;;;76.47;40.20;;;25.40;88.00;;;;;;5097778;28;20047;-59
2022/08/14 09:25:46;;;;;;;82.20;41.85;;;25.60;92.80;;;;;;5097812;28;20040;-59
2022/08/14 09:28:15;;;;;;;91.97;40.42;;;26.10;90.90;;;;;;5097872;28;20031;-59
2022/08/14 09:30:44;;;;;;;61.00;33.20;;;25.90;84.60;;;;;;5097815;28;20028;-59
2022/08/14 09:33:43;;;;;;;61.85;34.75;;;25.50;85.90;;;;;;5098016;28;20099;-59
2022/08/14 09:36:39;;;;;;;58.55;30.90;;;25.20;87.60;;;;;;5097700;28;20028;-59
2022/08/14 09:39:23;;;;;;;51.25;31.27;;;25.10;88.10;;;;;;5098224;28;20028;-59
2022/08/14 09:42:08;;;;;;;70.20;41.08;;;24.70;89.10;;;;;;5098048;28;20035;-60
2022/08/14 09:44:55;;;;;;;76.97;45.17;;;24.60;90.10;;;;;;5098088;28;20483;-60
2022/08/14 09:47:45;;;;;;;80.50;47.78;;;24.60;90.00;;;;;;5098023;28;20046;-60
2022/08/14 09:50:21;;;;;;;75.30;46.13;;;23.90;90.70;;;;;;5098146;28;20082;-60
2022/08/14 09:52:57;;;;;;;92.80;53.08;;;23.30;93.10;;;;;;5097994;28;20082;-59
2022/08/14 09:55:25;;;;;;;87.95;50.42;;;23.60;94.30;;;;;;5097881;28;20032;-60
2022/08/14 09:57:51;;;;;;;87.15;54.97;;;24.00;95.50;;;;;;5097726;28;20024;-59
2022/08/14 10:00:21;;;;;;;84.35;52.40;;;24.50;92.50;;;;;;5097719;28;20028;-59
2022/08/14 10:03:01;;;;;;;76.75;48.95;;;24.90;90.70;;;;;;5097724;28;20054;-59
2022/08/14 10:05:30;;;;;;;64.97;43.03;;;25.30;92.10;;;;;;5097765;28;20398;-59
2022/08/14 10:07:56;;;;;;;66.32;42.08;;;25.60;89.60;;;;;;5097510;28;20461;-59
2022/08/14 10:10:40;;;;;;;80.90;48.25;;;25.90;87.40;;;;;;5096138;28;20028;-60
2022/08/14 10:13:21;;;;;;;76.88;47.17;;;26.00;85.10;;;;;;5097313;28;20039;-60
2022/08/14 10:15:48;;;;;;;71.90;44.90;;;25.80;82.30;;;;;;5097497;28;20430;-60
2022/08/14 10:18:16;;;;;;;73.82;43.95;;;26.10;82.70;;;;;;5097334;28;20108;-59
2022/08/14 10:20:44;;;;;;;72.63;45.05;;;26.10;84.50;;;;;;5097378;28;20065;-60
2022/08/14 10:23:19;;;;;;;72.35;45.72;;;25.70;82.40;;;;;;5097024;28;20058;-60
2022/08/14 10:25:50;;;;;;;76.55;49.38;;;25.50;87.90;;;;;;5097256;28;20111;-60
2022/08/14 10:28:20;;;;;;;;;;;25.80;84.30;;;;;;5097479;28;20025;-60
2022/08/14 10:30:51;;;;;;;79.65;52.85;;;25.90;86.70;;;;;;5097299;28;19912;-60
2022/08/14 10:33:32;;;;;;;80.20;53.33;;;26.00;80.60;;;;;;5097135;28;20027;-60
2022/08/14 10:36:02;;;;;;;67.43;44.58;;;25.70;83.60;;;;;;5097276;28;20085;-60
2022/08/14 10:38:35;;;;;;;70.60;48.05;;;25.60;84.10;;;;;;5097086;28;20024;-60
2022/08/14 10:41:17;;;;;;;74.03;50.53;;;25.60;85.60;;;;;;5097113;28;20032;-60
2022/08/14 10:44:03;;;;;;;66.05;44.13;;;25.50;84.40;;;;;;5096403;28;20107;-60
2022/08/14 10:47:06;;;;;;;63.63;43.53;;;25.90;85.90;;;;;;5095914;28;20028;-60
2022/08/14 10:49:35;;;;;;;55.88;36.95;;;26.00;83.10;;;;;;5096402;28;20025;-59
2022/08/14 10:52:09;;;;;;;56.55;38.33;;;26.10;81.30;;;;;;5095857;28;20481;-60
2022/08/14 10:54:38;;;;;;;58.35;40.05;;;26.40;80.00;;;;;;5096120;28;20028;-60
2022/08/14 10:57:14;;;;;;;56.17;42.80;;;26.30;84.10;;;;;;5096176;28;20028;-60
2022/08/14 10:59:44;;;;;;;61.28;45.90;;;26.30;81.10;;;;;;5095921;28;20027;-60
2022/08/14 11:02:31;;;;;;;67.55;47.58;;;26.30;89.20;;;;;;5096197;28;20020;-60
2022/08/14 11:05:00;;;;;;;58.67;43.67;;;26.30;80.90;;;;;;5096837;28;20438;-60
2022/08/14 11:07:27;;;;;;;66.47;46.60;;;26.50;84.00;;;;;;5096404;28;20523;-60
2022/08/14 11:10:00;;;;;;;62.75;45.25;;;27.10;79.70;;;;;;5095037;28;20020;-59
2022/08/14 11:12:45;;;;;;;59.55;42.30;;;27.70;78.70;;;;;;5096528;28;20036;-60
2022/08/14 11:15:11;;;;;;;53.45;37.95;;;28.00;75.70;;;;;;5096168;28;20772;-59
2022/08/14 11:17:37;;;;;;;52.10;36.78;;;28.00;70.70;;;;;;5096465;28;20031;-60
2022/08/14 11:20:07;;;;;;;50.78;38.88;;;28.20;70.80;;;;;;5096275;28;20032;-60
2022/08/14 11:22:37;;;;;;;34.15;25.77;;;28.20;69.60;;;;;;5094844;28;20047;-60
2022/08/14 11:25:05;;;;;;;25.83;19.47;;;28.40;69.20;;;;;;5095430;28;20063;-60
2022/08/14 11:27:32;;;;;;;29.75;21.08;;;28.20;68.50;;;;;;5095939;28;20036;-60
2022/08/14 11:30:05;;;;;;;27.60;20.88;;;28.30;69.90;;;;;;5095866;28;20442;-60
2022/08/14 11:32:31;;;;;;;22.02;17.67;;;28.10;67.40;;;;;;5096102;28;20036;-61
2022/08/14 11:35:02;;;;;;;18.42;13.68;;;28.30;67.10;;;;;;5096124;28;20102;-60
2022/08/14 11:37:29;;;;;;;15.55;11.45;;;28.20;68.40;;;;;;5095978;28;20030;-60
2022/08/14 11:39:55;;;;;;;13.25;10.60;;;28.60;67.70;;;;;;5095841;28;20032;-60
2022/08/14 11:42:24;;;;;;;15.25;10.45;;;28.70;66.10;;;;;;5095672;28;20036;-60
2022/08/14 11:44:55;;;;;;;12.43;8.82;;;28.90;69.10;;;;;;5095821;28;20571;-60
2022/08/14 11:47:20;;;;;;;9.85;8.10;;;29.40;64.70;;;;;;5095842;28;20024;-60
2022/08/14 11:49:47;;;;;;;10.90;8.35;;;29.50;59.30;;;;;;5095526;28;20030;-60
2022/08/14 11:52:15;;;;;;;11.05;8.43;;;29.30;62.50;;;;;;5095142;28;20028;-60
2022/08/14 11:54:41;;;;;;;10.13;8.27;;;29.40;60.90;;;;;;5095064;28;20107;-60
2022/08/14 11:57:18;;;;;;;9.80;7.90;;;29.20;60.50;;;;;;5094828;28;20520;-60
2022/08/14 11:59:44;;;;;;;8.70;7.80;;;29.70;61.30;;;;;;5095217;28;20020;-60
2022/08/14 12:02:16;;;;;;;11.63;8.10;;;29.50;59.20;;;;;;5094860;28;20457;-60
2022/08/14 12:04:52;;;;;;;8.50;7.13;;;28.80;63.70;;;;;;5094824;28;20028;-60
2022/08/14 12:07:18;;;;;;;11.60;7.97;;;28.70;62.50;;;;;;5094730;28;20032;-60
2022/08/14 12:09:50;;;;;;;9.25;7.60;;;28.90;63.40;;;;;;5093780;28;20028;-60
2022/08/14 12:12:25;;;;;;;11.32;7.82;;;29.40;62.50;;;;;;5094902;28;20039;-60
2022/08/14 12:14:55;;;;;;;9.98;6.38;;;30.00;60.50;;;;;;5094647;28;20036;-60
2022/08/14 12:17:23;;;;;;;7.47;6.78;;;30.50;60.10;;;;;;5094563;28;20500;-60
2022/08/14 12:19:54;;;;;;;6.93;6.25;;;30.70;60.70;;;;;;5094520;28;20138;-60
2022/08/14 12:22:33;;;;;;;9.43;6.50;;;30.10;58.20;;;;;;5094454;28;20036;-60
2022/08/14 12:24:59;;;;;;;9.02;6.15;;;30.00;58.90;;;;;;5094442;28;20381;-60
2022/08/14 12:27:41;;;;;;;7.07;6.38;;;30.50;56.80;;;;;;5094476;28;20020;-60
2022/08/14 12:30:08;;;;;;;6.70;5.95;;;30.90;57.00;;;;;;5094599;28;20481;-60
2022/08/14 12:32:42;;;;;;;6.57;5.70;;;30.80;58.20;;;;;;5094368;28;20040;-60
2022/08/14 12:35:09;;;;;;;7.30;5.90;;;31.10;57.50;;;;;;5094361;28;20058;-60
2022/08/14 12:37:35;;;;;;;6.60;6.00;;;31.10;54.00;;;;;;5094663;28;20067;-60
2022/08/14 12:40:30;;;;;;;6.97;6.30;;;30.40;55.80;;;;;;5094303;28;20393;-60
2022/08/14 12:43:02;;;;;;;7.95;6.18;;;28.90;60.50;;;;;;5093020;28;20059;-60
2022/08/14 12:45:32;;;;;;;6.85;6.15;;;29.60;60.20;;;;;;5094271;28;20032;-60
2022/08/14 12:48:03;;;;;;;6.47;5.88;;;30.20;59.70;;;;;;5094447;28;20024;-61
2022/08/14 12:50:41;;;;;;;7.20;5.47;;;30.30;57.20;;;;;;5094483;28;20025;-60
2022/08/14 12:53:08;;;;;;;6.05;5.07;;;30.30;56.30;;;;;;5094264;28;20594;-60
2022/08/14 12:55:35;;;;;;;10.88;6.28;;;30.40;55.30;;;;;;5094389;28;20035;-61